Time;durP1;ratioP1;P1;durP2;ratioP2;P2;SDS_P1;SDS_P2;PMS_P1;PMS_P2;Temp;Humidity;BMP_temperature;BMP_pressure;BME280_temperature;BME280_humidity;BME280_pressure;Samples;Min_cycle;Max_cycle;Signal;HPM_P1;HPM_P2
2022/07/10 00:00:12;;;;;;;1.80;0.57;;;22.00;52.70;;;;;;2091965;28;20036;-83
2022/07/10 00:01:16;;;;;;;2.92;0.60;;;22.10;52.60;;;;;;2101542;28;20043;-83
2022/07/10 00:02:17;;;;;;;2.45;0.90;;;22.10;52.50;;;;;;2092360;28;20266;-83
2022/07/10 00:03:17;;;;;;;1.90;0.90;;;22.10;52.60;;;;;;2092040;28;20087;-83
2022/07/10 00:04:21;;;;;;;4.17;0.83;;;22.10;52.50;;;;;;2099252;28;20039;-83
2022/07/10 00:05:23;;;;;;;2.38;0.80;;;22.10;52.50;;;;;;2084663;28;20017;-83
2022/07/10 00:06:23;;;;;;;1.63;0.80;;;22.00;52.50;;;;;;2084020;28;20277;-83
2022/07/10 00:07:24;;;;;;;1.00;0.70;;;22.00;52.50;;;;;;2086112;28;20026;-83
2022/07/10 00:08:25;;;;;;;0.83;0.60;;;22.00;52.50;;;;;;2084069;28;20383;-83
2022/07/10 00:09:27;;;;;;;2.03;1.00;;;22.00;52.60;;;;;;2100353;28;20033;-83
2022/07/10 00:10:29;;;;;;;2.88;0.68;;;22.00;52.70;;;;;;2095183;28;20032;-84
2022/07/10 00:11:30;;;;;;;;;;;22.00;52.40;;;;;;2099908;28;20359;-81
2022/07/10 00:12:31;;;;;;;0.95;0.68;;;22.00;52.40;;;;;;2094137;28;20437;-83
2022/07/10 00:13:31;;;;;;;0.80;0.80;;;22.00;52.60;;;;;;2091798;28;20375;-83
2022/07/10 00:14:32;;;;;;;1.67;0.90;;;22.00;52.50;;;;;;2083849;28;20126;-83
2022/07/10 00:15:33;;;;;;;1.40;0.82;;;21.90;52.50;;;;;;2083756;28;20092;-83
2022/07/10 00:16:34;;;;;;;1.50;0.60;;;22.00;52.50;;;;;;2083825;28;20411;-83
2022/07/10 00:17:36;;;;;;;2.83;0.88;;;21.90;52.30;;;;;;2085682;28;20064;-83
2022/07/10 00:18:37;;;;;;;1.58;0.85;;;21.90;52.30;;;;;;2099987;28;20033;-83
2022/07/10 00:19:37;;;;;;;0.60;0.60;;;21.90;52.20;;;;;;2083712;28;20440;-83
2022/07/10 00:20:38;;;;;;;1.27;0.70;;;21.90;52.30;;;;;;2078347;28;20025;-83
2022/07/10 00:21:39;;;;;;;0.87;0.67;;;21.90;52.20;;;;;;2083689;28;20040;-83
2022/07/10 00:22:40;;;;;;;0.90;0.70;;;21.80;52.50;;;;;;2089241;28;20025;-83
2022/07/10 00:23:41;;;;;;;1.60;0.75;;;21.80;52.40;;;;;;2092099;28;20025;-83
2022/07/10 00:24:42;;;;;;;0.90;0.60;;;21.90;52.30;;;;;;2099166;28;20074;-83
2022/07/10 00:25:43;;;;;;;1.50;0.77;;;21.80;52.40;;;;;;2083549;28;20056;-83
2022/07/10 00:26:43;;;;;;;1.33;0.90;;;21.80;52.90;;;;;;2075537;28;20037;-83
2022/07/10 00:27:44;;;;;;;1.00;0.70;;;21.90;52.50;;;;;;2086126;28;20390;-83
2022/07/10 00:28:45;;;;;;;2.43;0.90;;;21.90;52.30;;;;;;2092181;28;20258;-83
2022/07/10 00:29:46;;;;;;;0.87;0.67;;;21.90;52.50;;;;;;2083642;28;20456;-83
2022/07/10 00:30:47;;;;;;;1.45;0.77;;;21.80;52.40;;;;;;2083729;28;20033;-83
2022/07/10 00:31:48;;;;;;;1.63;0.87;;;21.80;52.40;;;;;;2090867;28;20025;-83
2022/07/10 00:32:48;;;;;;;1.43;0.90;;;21.80;52.60;;;;;;2095041;28;20065;-83
2022/07/10 00:33:50;;;;;;;0.90;0.77;;;21.80;52.40;;;;;;2091976;28;20090;-83
2022/07/10 00:34:51;;;;;;;1.73;1.13;;;21.80;52.80;;;;;;2099878;28;20098;-83
2022/07/10 00:35:52;;;;;;;1.00;0.70;;;21.80;52.50;;;;;;2089480;28;20289;-83
2022/07/10 00:36:53;;;;;;;1.70;0.77;;;21.80;52.60;;;;;;2083024;28;20034;-83
2022/07/10 00:37:54;;;;;;;1.13;0.80;;;21.80;52.60;;;;;;2086699;28;20048;-83
2022/07/10 00:38:54;;;;;;;1.17;0.70;;;21.80;52.60;;;;;;2083677;28;20026;-83
2022/07/10 00:39:55;;;;;;;0.87;0.60;;;21.80;52.60;;;;;;2099435;28;20025;-83
2022/07/10 00:40:56;;;;;;;1.40;0.87;;;21.80;52.50;;;;;;2100019;28;20127;-83
2022/07/10 00:42:11;;;;;;;1.20;0.77;;;21.80;52.70;;;;;;2091810;28;20028;-83
2022/07/10 00:43:12;;;;;;;1.83;0.80;;;21.80;52.80;;;;;;2088319;28;20372;-83
2022/07/10 00:44:13;;;;;;;1.20;0.77;;;21.80;52.60;;;;;;2099024;28;20269;-83
2022/07/10 00:45:14;;;;;;;1.23;0.70;;;21.80;52.70;;;;;;2094147;28;20124;-83
2022/07/10 00:46:16;;;;;;;1.07;0.77;;;21.80;52.90;;;;;;2100068;28;20517;-83
2022/07/10 00:47:19;;;;;;;1.55;0.90;;;21.90;52.80;;;;;;2092025;28;20029;-83
2022/07/10 00:48:20;;;;;;;2.20;0.70;;;21.90;52.80;;;;;;2086283;28;20297;-83
2022/07/10 00:49:20;;;;;;;0.90;0.70;;;21.90;52.90;;;;;;2075340;28;20263;-83
2022/07/10 00:50:21;;;;;;;1.30;0.77;;;21.90;52.80;;;;;;2083432;28;20025;-83
2022/07/10 00:51:25;;;;;;;3.13;1.00;;;21.90;52.90;;;;;;2090853;28;20044;-83
2022/07/10 00:52:26;;;;;;;1.92;0.77;;;21.90;52.80;;;;;;2076300;28;20092;-83
2022/07/10 00:53:27;;;;;;;1.17;0.80;;;21.90;52.90;;;;;;2083288;28;20356;-83
2022/07/10 00:54:30;;;;;;;0.80;0.60;;;21.90;53.10;;;;;;2083486;28;20037;-83
2022/07/10 00:55:32;;;;;;;2.05;1.00;;;21.90;53.10;;;;;;2095799;28;20043;-83
2022/07/10 00:56:33;;;;;;;1.45;0.90;;;21.90;53.10;;;;;;2091569;28;20396;-83
2022/07/10 00:57:36;;;;;;;4.20;0.77;;;21.90;53.20;;;;;;2090793;28;20300;-83
2022/07/10 00:58:39;;;;;;;1.15;0.80;;;21.80;53.10;;;;;;2080331;28;20030;-83
2022/07/10 00:59:40;;;;;;;2.03;0.82;;;21.80;53.10;;;;;;2075759;28;20255;-83
2022/07/10 01:00:42;;;;;;;2.17;0.80;;;21.80;53.20;;;;;;2090116;28;20640;-83
2022/07/10 01:01:43;;;;;;;1.92;0.70;;;21.80;53.20;;;;;;2092492;28;20040;-82
2022/07/10 01:02:45;;;;;;;1.25;0.80;;;21.80;53.30;;;;;;2091913;28;20431;-83
2022/07/10 01:03:47;;;;;;;3.17;0.90;;;21.80;53.20;;;;;;2099861;28;20109;-83
2022/07/10 01:04:47;;;;;;;0.98;0.75;;;21.80;53.20;;;;;;2090710;28;20079;-83
2022/07/10 01:05:48;;;;;;;1.27;0.90;;;21.80;53.40;;;;;;2091489;28;20107;-83
2022/07/10 01:06:49;;;;;;;2.00;1.03;;;21.80;53.40;;;;;;2090473;28;20033;-83
2022/07/10 01:07:50;;;;;;;1.00;0.80;;;21.80;53.30;;;;;;2083420;28;20460;-83
2022/07/10 01:08:50;;;;;;;1.73;0.80;;;21.80;53.40;;;;;;2095011;28;20086;-83
2022/07/10 01:09:51;;;;;;;1.67;1.00;;;21.80;53.50;;;;;;2091572;28;20123;-83
2022/07/10 01:10:52;;;;;;;1.67;0.90;;;21.80;53.60;;;;;;2099124;28;20047;-83
2022/07/10 01:11:53;;;;;;;2.17;0.90;;;21.80;53.50;;;;;;2091462;28;20124;-83
2022/07/10 01:12:54;;;;;;;0.90;0.70;;;21.70;53.50;;;;;;2083373;28;20402;-83
2022/07/10 01:13:55;;;;;;;2.55;1.00;;;21.70;53.60;;;;;;2088150;28;20108;-83
2022/07/10 01:14:56;;;;;;;1.52;0.80;;;21.70;53.70;;;;;;2083297;28;20033;-83
2022/07/10 01:15:58;;;;;;;2.33;1.10;;;21.70;53.50;;;;;;2081351;28;20025;-83
2022/07/10 01:16:59;;;;;;;2.22;1.13;;;21.70;53.60;;;;;;2091282;28;20542;-83
2022/07/10 01:18:00;;;;;;;2.05;1.13;;;21.70;53.60;;;;;;2095425;28;20469;-83
2022/07/10 01:19:01;;;;;;;3.67;0.82;;;21.70;53.50;;;;;;2091037;28;20025;-83
2022/07/10 01:20:09;;;;;;;1.90;1.10;;;21.60;53.60;;;;;;2083090;28;20029;-83
2022/07/10 01:21:26;;;;;;;1.30;0.90;;;21.60;53.60;;;;;;2092507;28;20027;-83
2022/07/10 01:22:27;;;;;;;1.70;1.05;;;21.60;53.70;;;;;;2096245;28;20269;-83
2022/07/10 01:23:28;;;;;;;2.07;0.97;;;21.60;53.70;;;;;;2091391;28;20258;-83
2022/07/10 01:24:28;;;;;;;3.47;1.20;;;21.60;53.70;;;;;;2090370;28;20021;-83
2022/07/10 01:25:29;;;;;;;1.30;1.10;;;21.60;53.70;;;;;;2091196;28;20029;-82
2022/07/10 01:26:30;;;;;;;1.57;1.10;;;21.60;53.70;;;;;;2091300;28;20059;-83
2022/07/10 01:27:31;;;;;;;1.57;0.90;;;21.60;53.80;;;;;;2094638;28;20021;-83
2022/07/10 01:28:33;;;;;;;1.50;0.90;;;21.60;53.80;;;;;;2091052;28;20096;-83
2022/07/10 01:29:35;;;;;;;2.70;0.93;;;21.60;53.80;;;;;;2083225;28;20064;-83
2022/07/10 01:30:36;;;;;;;2.42;1.40;;;21.60;53.90;;;;;;2075868;28;20278;-83
2022/07/10 01:31:39;;;;;;;2.65;1.10;;;21.60;53.80;;;;;;2090372;28;20355;-83
2022/07/10 01:32:40;;;;;;;1.88;1.00;;;21.60;53.80;;;;;;2091597;28;20021;-83
2022/07/10 01:33:41;;;;;;;1.05;0.88;;;21.60;53.80;;;;;;2083293;28;20376;-83
2022/07/10 01:34:42;;;;;;;1.60;1.00;;;21.60;53.90;;;;;;2082885;28;20026;-83
2022/07/10 01:35:43;;;;;;;1.17;0.90;;;21.60;54.20;;;;;;2098691;28;20039;-83
2022/07/10 01:36:44;;;;;;;1.27;0.85;;;21.50;53.90;;;;;;2099681;28;20446;-83
2022/07/10 01:37:45;;;;;;;2.10;0.90;;;21.50;54.20;;;;;;2101752;28;20024;-83
2022/07/10 01:38:46;;;;;;;2.80;0.95;;;21.50;54.20;;;;;;2099818;28;20119;-83
2022/07/10 01:39:47;;;;;;;1.00;0.80;;;21.50;54.20;;;;;;2091386;28;20029;-83
2022/07/10 01:40:48;;;;;;;1.40;0.97;;;21.50;54.20;;;;;;2091203;28;20098;-83
2022/07/10 01:41:48;;;;;;;5.80;1.00;;;21.50;54.30;;;;;;2083223;28;20059;-83
2022/07/10 01:42:49;;;;;;;0.97;0.80;;;21.50;54.20;;;;;;2077727;28;20021;-83
2022/07/10 01:43:51;;;;;;;1.20;0.90;;;21.50;54.90;;;;;;2083115;28;20030;-83
2022/07/10 01:44:53;;;;;;;2.00;1.10;;;21.40;54.40;;;;;;2081995;28;20041;-83
2022/07/10 01:45:54;;;;;;;2.55;1.10;;;21.40;54.40;;;;;;2091448;28;20029;-83
2022/07/10 01:46:55;;;;;;;1.53;0.80;;;21.40;55.10;;;;;;2091228;28;20261;-84
2022/07/10 01:47:56;;;;;;;2.93;0.90;;;21.40;54.60;;;;;;2085872;28;20025;-83
2022/07/10 01:48:57;;;;;;;1.85;1.00;;;21.40;54.60;;;;;;2091088;28;20037;-83
2022/07/10 01:49:58;;;;;;;1.30;0.80;;;21.40;54.70;;;;;;2083020;28;20021;-83
2022/07/10 01:50:59;;;;;;;3.53;1.10;;;21.40;54.70;;;;;;2090054;28;20544;-83
2022/07/10 01:52:00;;;;;;;1.40;0.97;;;21.40;55.00;;;;;;2098436;28;20132;-83
2022/07/10 01:53:00;;;;;;;1.83;1.10;;;21.40;55.00;;;;;;2097114;28;20060;-82
2022/07/10 01:54:01;;;;;;;1.10;1.00;;;21.40;55.00;;;;;;2098984;28;20496;-83
2022/07/10 01:55:04;;;;;;;1.10;0.93;;;21.40;55.00;;;;;;2091026;28;20069;-83
2022/07/10 01:56:07;;;;;;;1.10;1.00;;;21.40;55.00;;;;;;2091629;28;20033;-83
2022/07/10 01:57:08;;;;;;;1.60;0.98;;;21.40;55.00;;;;;;2090953;28;20352;-83
2022/07/10 01:58:09;;;;;;;1.40;0.93;;;21.50;55.10;;;;;;2084444;28;20356;-83
2022/07/10 01:59:10;;;;;;;1.67;1.00;;;21.40;55.10;;;;;;2091173;28;20085;-83
2022/07/10 02:00:11;;;;;;;1.10;0.90;;;21.40;55.10;;;;;;2085837;28;20025;-83
2022/07/10 02:01:14;;;;;;;2.13;1.30;;;21.40;55.20;;;;;;2083670;28;20041;-84
2022/07/10 02:02:15;;;;;;;1.30;0.90;;;21.40;55.20;;;;;;2100021;28;20587;-83
2022/07/10 02:04:41;;;;;;;1.85;1.10;;;21.40;55.30;;;;;;2092786;28;20044;-83
2022/07/10 02:05:42;;;;;;;2.25;1.10;;;21.40;55.40;;;;;;2099651;28;20353;-83
2022/07/10 02:06:43;;;;;;;1.40;1.03;;;21.40;55.40;;;;;;2094100;28;20639;-83
2022/07/10 02:07:44;;;;;;;1.50;0.93;;;21.40;55.30;;;;;;2082907;28;20029;-83
2022/07/10 02:08:44;;;;;;;1.50;1.17;;;21.40;55.60;;;;;;2085219;28;20041;-83
2022/07/10 02:09:45;;;;;;;1.37;1.20;;;21.40;55.60;;;;;;2083033;28;20021;-83
2022/07/10 02:10:46;;;;;;;1.60;1.30;;;21.40;55.60;;;;;;2107871;28;20023;-83
2022/07/10 02:11:47;;;;;;;1.20;0.90;;;21.40;55.70;;;;;;2098108;28;20039;-83
2022/07/10 02:12:48;;;;;;;2.33;1.10;;;21.30;55.90;;;;;;2090684;28;20403;-83
2022/07/10 02:13:48;;;;;;;1.50;1.20;;;21.30;55.90;;;;;;2090946;28;20032;-83
2022/07/10 02:14:49;;;;;;;1.53;1.10;;;21.30;55.90;;;;;;2091116;28;20021;-83
2022/07/10 02:15:51;;;;;;;1.30;1.00;;;21.30;56.00;;;;;;2090860;28;20341;-83
2022/07/10 02:16:51;;;;;;;2.10;1.27;;;21.30;56.00;;;;;;2091014;28;20119;-83
2022/07/10 02:17:52;;;;;;;3.00;0.97;;;21.30;56.00;;;;;;2089874;28;20154;-83
2022/07/10 02:18:53;;;;;;;1.97;1.13;;;21.30;56.00;;;;;;2082088;28;20033;-82
2022/07/10 02:19:54;;;;;;;1.70;1.20;;;21.30;56.10;;;;;;2083439;28;20033;-83
2022/07/10 02:20:54;;;;;;;1.30;1.10;;;21.30;56.00;;;;;;2082838;28;20121;-83
2022/07/10 02:21:55;;;;;;;1.20;1.00;;;21.30;56.10;;;;;;2084114;28;20060;-83
2022/07/10 02:22:56;;;;;;;1.97;1.00;;;21.30;56.10;;;;;;2082730;28;20096;-83
2022/07/10 02:23:57;;;;;;;1.23;1.00;;;21.30;56.20;;;;;;2083770;28;20280;-83
2022/07/10 02:24:58;;;;;;;2.22;1.15;;;21.30;56.20;;;;;;2086759;28;20048;-83
2022/07/10 02:25:59;;;;;;;1.67;1.07;;;21.30;56.20;;;;;;2089135;28;20025;-83
2022/07/10 02:26:59;;;;;;;1.40;1.13;;;21.30;56.20;;;;;;2090892;28;20028;-83
2022/07/10 02:28:00;;;;;;;5.90;1.00;;;21.30;56.20;;;;;;2088366;28;20029;-83
2022/07/10 02:29:01;;;;;;;1.23;1.03;;;21.30;56.30;;;;;;2090885;28;20035;-83
2022/07/10 02:30:02;;;;;;;1.80;1.30;;;21.20;56.30;;;;;;2099040;28;20119;-83
2022/07/10 02:31:03;;;;;;;1.50;1.02;;;21.20;56.50;;;;;;2089858;28;20025;-83
2022/07/10 02:32:04;;;;;;;1.13;1.00;;;21.20;56.50;;;;;;2106653;28;20031;-83
2022/07/10 02:33:05;;;;;;;2.85;1.13;;;21.20;56.50;;;;;;2097257;28;20024;-83
2022/07/10 02:34:09;;;;;;;1.80;1.20;;;21.20;56.60;;;;;;2082557;28;20029;-83
2022/07/10 02:35:10;;;;;;;1.20;1.00;;;21.20;56.60;;;;;;2083442;28;20120;-83
2022/07/10 02:36:11;;;;;;;2.63;1.30;;;21.30;56.70;;;;;;2098817;28;20272;-83
2022/07/10 02:37:12;;;;;;;1.40;1.10;;;21.30;56.70;;;;;;2089870;28;20095;-83
2022/07/10 02:38:12;;;;;;;2.23;1.20;;;21.20;56.70;;;;;;2098358;28;20039;-83
2022/07/10 02:39:15;;;;;;;1.55;0.98;;;21.30;56.80;;;;;;2090975;28;20050;-83
2022/07/10 02:40:16;;;;;;;1.77;1.20;;;21.20;56.80;;;;;;2090964;28;20831;-83
2022/07/10 02:41:17;;;;;;;1.63;1.10;;;21.20;56.80;;;;;;2090726;28;20029;-83
2022/07/10 02:42:17;;;;;;;1.40;1.20;;;21.20;56.90;;;;;;2090889;28;20352;-83
2022/07/10 02:43:18;;;;;;;1.40;1.07;;;21.20;57.00;;;;;;2093026;28;20124;-83
2022/07/10 02:44:19;;;;;;;3.87;1.13;;;21.20;57.00;;;;;;2090405;28;20025;-83
2022/07/10 02:45:20;;;;;;;1.23;1.03;;;21.20;57.10;;;;;;2090782;28;20031;-83
2022/07/10 02:46:20;;;;;;;2.07;1.30;;;21.20;57.10;;;;;;2092794;28;20108;-83
2022/07/10 02:47:21;;;;;;;1.50;1.10;;;21.20;57.10;;;;;;2096541;28;20044;-83
2022/07/10 02:48:22;;;;;;;1.30;1.20;;;21.20;57.10;;;;;;2099131;28;20064;-83
2022/07/10 02:49:23;;;;;;;1.70;1.10;;;21.10;57.00;;;;;;2099170;28;20119;-83
2022/07/10 02:50:24;;;;;;;1.27;1.00;;;21.20;57.20;;;;;;2099232;28;20042;-83
2022/07/10 02:51:24;;;;;;;1.57;1.10;;;21.20;57.10;;;;;;2090231;28;20033;-83
2022/07/10 02:52:25;;;;;;;1.30;1.20;;;21.10;57.10;;;;;;2082634;28;20030;-83
2022/07/10 02:53:26;;;;;;;1.10;1.00;;;21.10;57.40;;;;;;2082805;28;20029;-83
2022/07/10 02:54:27;;;;;;;1.40;1.10;;;21.10;57.40;;;;;;2090743;28;20060;-83
2022/07/10 02:55:27;;;;;;;1.50;1.20;;;21.10;57.50;;;;;;2090835;28;20053;-83
2022/07/10 02:56:28;;;;;;;1.90;1.20;;;21.00;57.50;;;;;;2090707;28;20044;-83
2022/07/10 02:57:29;;;;;;;1.30;1.20;;;21.10;57.60;;;;;;2089525;28;20031;-82
2022/07/10 02:58:30;;;;;;;2.37;1.37;;;21.00;57.60;;;;;;2090142;28;20076;-83
2022/07/10 02:59:31;;;;;;;2.60;1.27;;;21.10;57.60;;;;;;2088005;28;20079;-83
2022/07/10 03:00:31;;;;;;;1.20;1.07;;;21.10;57.50;;;;;;2085864;28;20035;-83
2022/07/10 03:01:32;;;;;;;1.53;1.27;;;21.00;57.50;;;;;;2090901;28;20020;-83
2022/07/10 03:02:33;;;;;;;1.40;1.20;;;21.00;57.60;;;;;;2099011;28;20029;-83
2022/07/10 03:03:34;;;;;;;3.43;1.33;;;21.00;57.70;;;;;;2098233;28;20029;-83
2022/07/10 03:04:35;;;;;;;1.67;1.40;;;21.00;57.60;;;;;;2084618;28;20067;-83
2022/07/10 03:05:35;;;;;;;1.67;1.20;;;21.00;57.60;;;;;;2094356;28;20036;-83
2022/07/10 03:06:36;;;;;;;1.30;1.10;;;21.00;57.70;;;;;;2099063;28;20115;-83
2022/07/10 03:07:37;;;;;;;1.37;1.10;;;21.00;57.70;;;;;;2099038;28;20020;-83
2022/07/10 03:08:38;;;;;;;1.83;1.20;;;21.00;57.80;;;;;;2090792;28;20474;-83
2022/07/10 03:09:39;;;;;;;1.20;1.10;;;21.00;57.70;;;;;;2099135;28;20086;-83
2022/07/10 03:10:40;;;;;;;1.73;1.00;;;21.00;57.70;;;;;;2090741;28;20517;-84
2022/07/10 03:11:41;;;;;;;1.95;1.20;;;21.00;57.70;;;;;;2095275;28;20459;-83
2022/07/10 03:12:42;;;;;;;1.20;1.00;;;21.00;57.90;;;;;;2090625;28;20072;-84
2022/07/10 03:13:42;;;;;;;1.47;1.27;;;20.90;57.80;;;;;;2090254;28;20036;-84
2022/07/10 03:14:43;;;;;;;1.83;1.20;;;21.00;57.80;;;;;;2107435;28;20028;-83
2022/07/10 03:15:44;;;;;;;1.30;1.10;;;21.00;57.90;;;;;;2093910;28;20059;-84
2022/07/10 03:16:45;;;;;;;2.03;1.13;;;21.00;58.00;;;;;;2107526;28;20046;-83
2022/07/10 03:17:46;;;;;;;2.13;0.97;;;20.90;57.90;;;;;;2090033;28;20025;-84
2022/07/10 03:18:47;;;;;;;2.72;1.20;;;20.90;57.90;;;;;;2090717;28;20036;-84
2022/07/10 03:19:47;;;;;;;1.70;1.20;;;20.90;58.00;;;;;;2090775;28;20102;-83
2022/07/10 03:20:48;;;;;;;1.73;1.17;;;20.90;58.00;;;;;;2096294;28;20414;-83
2022/07/10 03:21:49;;;;;;;1.23;1.07;;;20.90;58.10;;;;;;2095043;28;20028;-83
2022/07/10 03:22:50;;;;;;;1.50;1.10;;;20.90;58.10;;;;;;2090519;28;20029;-83
2022/07/10 03:23:51;;;;;;;1.57;1.40;;;20.90;58.10;;;;;;2098992;28;20149;-83
2022/07/10 03:24:51;;;;;;;1.67;1.07;;;20.90;58.90;;;;;;2098339;28;20261;-83
2022/07/10 03:25:52;;;;;;;1.40;1.10;;;20.80;58.20;;;;;;2090703;28;20024;-83
2022/07/10 03:26:56;;;;;;;1.92;1.23;;;20.90;58.30;;;;;;2090915;28;20107;-83
2022/07/10 03:27:57;;;;;;;1.60;1.17;;;20.90;58.40;;;;;;2082566;28;20286;-83
2022/07/10 03:28:57;;;;;;;2.00;1.23;;;20.90;58.40;;;;;;2077529;28;20371;-83
2022/07/10 03:29:58;;;;;;;2.60;1.33;;;20.90;58.40;;;;;;2090746;28;20025;-83
2022/07/10 03:30:59;;;;;;;2.00;1.07;;;20.90;58.40;;;;;;2095911;28;20025;-83
2022/07/10 03:32:00;;;;;;;1.80;1.17;;;20.80;58.30;;;;;;2090522;28;20029;-83
2022/07/10 03:33:03;;;;;;;2.90;1.30;;;20.80;58.40;;;;;;2090730;28;20390;-83
2022/07/10 03:34:03;;;;;;;2.40;1.20;;;20.80;59.00;;;;;;2090915;28;20033;-84
2022/07/10 03:35:05;;;;;;;1.80;1.25;;;20.80;58.40;;;;;;2090809;28;20304;-83
2022/07/10 03:36:06;;;;;;;1.48;1.20;;;20.80;58.40;;;;;;2082531;28;20044;-83
2022/07/10 03:37:08;;;;;;;2.58;1.50;;;20.80;58.50;;;;;;2098950;28;20036;-83
2022/07/10 03:38:08;;;;;;;2.33;1.30;;;20.80;59.20;;;;;;2098456;28;20040;-83
2022/07/10 03:39:09;;;;;;;1.97;1.40;;;20.80;58.50;;;;;;2098993;28;20063;-83
2022/07/10 03:40:10;;;;;;;1.33;1.10;;;20.80;58.60;;;;;;2090690;28;20509;-83
2022/07/10 03:41:11;;;;;;;1.45;1.05;;;20.80;58.50;;;;;;2092978;28;20056;-83
2022/07/10 03:42:12;;;;;;;1.40;1.10;;;20.80;58.50;;;;;;2082346;28;20030;-83
2022/07/10 03:43:14;;;;;;;1.50;1.17;;;20.80;58.60;;;;;;2074200;28;20044;-83
2022/07/10 03:44:15;;;;;;;1.20;1.00;;;20.80;58.50;;;;;;2076235;28;20056;-82
2022/07/10 03:45:16;;;;;;;1.65;1.17;;;20.80;58.50;;;;;;2090717;28;20116;-83
2022/07/10 03:46:17;;;;;;;2.37;1.03;;;20.80;58.50;;;;;;2090622;28;20033;-83
2022/07/10 03:47:18;;;;;;;1.50;1.00;;;20.80;58.50;;;;;;2090512;28;20049;-82
2022/07/10 03:48:18;;;;;;;1.40;1.13;;;20.80;58.50;;;;;;2082515;28;20029;-83
2022/07/10 03:49:19;;;;;;;3.88;1.50;;;20.70;58.40;;;;;;2082402;28;20025;-83
2022/07/10 03:50:20;;;;;;;1.87;1.37;;;20.70;58.50;;;;;;2090767;28;20459;-83
2022/07/10 03:51:21;;;;;;;1.83;1.30;;;20.70;58.50;;;;;;2089972;28;20037;-83
2022/07/10 03:52:21;;;;;;;1.67;1.40;;;20.70;58.50;;;;;;2082369;28;20068;-84
2022/07/10 03:53:22;;;;;;;2.50;1.10;;;20.70;58.60;;;;;;2082369;28;20040;-84
2022/07/10 03:54:23;;;;;;;1.80;1.03;;;20.70;58.50;;;;;;2090617;28;20044;-83
2022/07/10 03:55:24;;;;;;;1.60;1.13;;;20.70;58.50;;;;;;2082499;28;20194;-84
2022/07/10 03:58:02;;;;;;;2.08;1.30;;;20.70;58.60;;;;;;2096904;28;20275;-83
2022/07/10 03:59:03;;;;;;;1.30;1.00;;;20.60;58.80;;;;;;2090584;28;20585;-83
2022/07/10 04:00:04;;;;;;;1.60;1.30;;;20.60;59.10;;;;;;2089726;28;20361;-83
2022/07/10 04:01:12;;;;;;;1.45;1.08;;;20.60;59.10;;;;;;2093030;28;20083;-83
2022/07/10 04:02:13;;;;;;;4.17;1.23;;;20.60;59.00;;;;;;2100081;28;20257;-83
2022/07/10 04:03:14;;;;;;;2.37;1.50;;;20.60;59.00;;;;;;2098915;28;20474;-83
2022/07/10 04:04:15;;;;;;;1.70;1.30;;;20.60;58.90;;;;;;2090005;28;20025;-83
2022/07/10 04:05:15;;;;;;;1.77;1.40;;;20.60;58.90;;;;;;2098454;28;20024;-84
2022/07/10 04:06:16;;;;;;;2.17;1.50;;;20.50;59.00;;;;;;2096408;28;20032;-83
2022/07/10 04:07:17;;;;;;;1.87;1.33;;;20.60;59.00;;;;;;2090530;28;20025;-83
2022/07/10 04:08:18;;;;;;;1.83;1.50;;;20.60;59.00;;;;;;2090473;28;20028;-84
2022/07/10 04:09:18;;;;;;;2.40;1.40;;;20.50;59.00;;;;;;2090785;28;20044;-83
2022/07/10 04:10:20;;;;;;;3.97;1.30;;;20.50;59.10;;;;;;2090545;28;20032;-83
2022/07/10 04:11:21;;;;;;;1.85;1.50;;;20.50;59.10;;;;;;2083958;28;20033;-83
2022/07/10 04:12:21;;;;;;;1.63;1.10;;;20.50;59.20;;;;;;2092086;28;20119;-83
2022/07/10 04:13:22;;;;;;;5.33;1.30;;;20.50;59.20;;;;;;2088651;28;20378;-83
2022/07/10 04:14:23;;;;;;;2.53;1.50;;;20.50;59.20;;;;;;2083941;28;20033;-83
2022/07/10 04:15:24;;;;;;;2.23;1.40;;;20.40;59.40;;;;;;2076405;28;20061;-83
2022/07/10 04:16:25;;;;;;;2.90;1.50;;;20.40;59.50;;;;;;2092241;28;20044;-83
2022/07/10 04:17:26;;;;;;;2.03;1.47;;;20.40;59.30;;;;;;2100247;28;20877;-83
2022/07/10 04:18:26;;;;;;;2.10;1.50;;;20.40;59.40;;;;;;2087719;28;20116;-83
2022/07/10 04:19:27;;;;;;;3.20;1.30;;;20.40;59.50;;;;;;2092162;28;20040;-83
2022/07/10 04:20:28;;;;;;;1.60;1.13;;;20.40;59.50;;;;;;2082931;28;20333;-83
2022/07/10 04:21:29;;;;;;;1.93;1.60;;;20.40;59.40;;;;;;2085367;28;20026;-83
2022/07/10 04:22:30;;;;;;;1.20;1.10;;;20.40;59.40;;;;;;2100451;28;20029;-83
2022/07/10 04:23:33;;;;;;;3.27;1.43;;;20.40;59.50;;;;;;2083757;28;20025;-83
2022/07/10 04:24:33;;;;;;;4.25;1.90;;;20.40;59.50;;;;;;2075651;28;20025;-83
2022/07/10 04:25:34;;;;;;;2.67;1.63;;;20.40;59.50;;;;;;2082917;28;20261;-83
2022/07/10 04:26:35;;;;;;;2.17;1.50;;;20.40;59.60;;;;;;2083928;28;20075;-83
2022/07/10 04:27:37;;;;;;;1.83;1.50;;;20.40;59.50;;;;;;2089768;28;20473;-83
2022/07/10 04:28:37;;;;;;;2.03;1.52;;;20.40;59.50;;;;;;2091589;28;20025;-83
2022/07/10 04:29:38;;;;;;;4.00;1.90;;;20.40;59.50;;;;;;2083821;28;20037;-83
2022/07/10 04:30:39;;;;;;;2.37;1.67;;;20.30;59.70;;;;;;2078706;28;20033;-83
2022/07/10 04:31:40;;;;;;;2.50;1.57;;;20.30;59.80;;;;;;2083004;28;20030;-83
2022/07/10 04:32:41;;;;;;;2.43;1.70;;;20.30;59.70;;;;;;2083561;28;20076;-83
2022/07/10 04:33:42;;;;;;;2.70;1.50;;;20.30;59.80;;;;;;2083631;28;20029;-83
2022/07/10 04:34:43;;;;;;;2.20;1.60;;;20.20;60.00;;;;;;2083807;28;20043;-83
2022/07/10 04:35:43;;;;;;;2.92;1.70;;;20.20;59.90;;;;;;2083659;28;20371;-82
2022/07/10 04:36:44;;;;;;;3.33;1.47;;;20.20;60.10;;;;;;2083743;28;20025;-83
2022/07/10 04:37:46;;;;;;;2.03;1.40;;;20.20;60.30;;;;;;2091010;28;20028;-83
2022/07/10 04:38:47;;;;;;;1.92;1.50;;;20.20;60.30;;;;;;2091981;28;20451;-82
2022/07/10 04:39:47;;;;;;;3.17;1.50;;;20.20;60.30;;;;;;2083782;28;20057;-82
2022/07/10 04:40:48;;;;;;;2.43;1.43;;;20.20;60.20;;;;;;2086524;28;20052;-83
2022/07/10 04:41:49;;;;;;;2.67;1.48;;;20.10;60.10;;;;;;2083353;28;20482;-83
2022/07/10 04:42:50;;;;;;;2.23;1.60;;;20.20;60.10;;;;;;2083598;28;20025;-83
2022/07/10 04:43:51;;;;;;;2.37;1.47;;;20.20;60.00;;;;;;2091917;28;20029;-83
2022/07/10 04:44:51;;;;;;;2.17;1.60;;;20.20;60.00;;;;;;2091359;28;20086;-83
2022/07/10 04:45:52;;;;;;;2.70;1.33;;;20.20;60.00;;;;;;2086079;28;20380;-83
2022/07/10 04:46:53;;;;;;;1.63;1.27;;;20.20;60.00;;;;;;2091890;28;20047;-83
2022/07/10 04:47:54;;;;;;;2.00;1.40;;;20.20;60.10;;;;;;2097052;28;20025;-83
2022/07/10 04:48:55;;;;;;;2.90;1.50;;;20.20;60.20;;;;;;2092054;28;20025;-83
2022/07/10 04:49:55;;;;;;;1.83;1.17;;;20.20;60.20;;;;;;2091971;28;20463;-83
2022/07/10 04:50:57;;;;;;;2.17;1.50;;;20.10;60.30;;;;;;2082875;28;20030;-83
2022/07/10 04:51:58;;;;;;;;;;;20.10;60.10;;;;;;2084059;28;20022;-83
2022/07/10 04:52:59;;;;;;;1.83;1.40;;;20.20;60.30;;;;;;2092022;28;20010;-83
2022/07/10 04:54:00;;;;;;;2.57;1.50;;;20.10;60.20;;;;;;2100223;28;20123;-83
2022/07/10 04:55:01;;;;;;;2.43;1.70;;;20.20;60.30;;;;;;2083965;28;20060;-83
2022/07/10 04:56:02;;;;;;;2.42;1.73;;;20.20;60.20;;;;;;2083459;28;20036;-83
2022/07/10 04:57:03;;;;;;;3.50;1.70;;;20.10;60.40;;;;;;2091657;28;20055;-84
2022/07/10 04:58:04;;;;;;;2.97;1.52;;;20.20;60.50;;;;;;2079440;28;20037;-83
2022/07/10 04:59:04;;;;;;;2.80;1.50;;;20.10;60.40;;;;;;2083674;28;20029;-83
2022/07/10 05:00:06;;;;;;;2.70;1.70;;;20.20;60.40;;;;;;2083516;28;20025;-83
2022/07/10 05:01:07;;;;;;;3.05;1.70;;;20.10;60.50;;;;;;2083622;28;20032;-83
2022/07/10 05:02:08;;;;;;;3.03;1.80;;;20.10;60.50;;;;;;2083530;28;20124;-83
2022/07/10 05:03:08;;;;;;;2.60;1.75;;;20.10;60.60;;;;;;2091850;28;20075;-83
2022/07/10 05:04:10;;;;;;;3.00;1.60;;;20.10;60.60;;;;;;2100067;28;20041;-85
2022/07/10 05:05:11;;;;;;;2.20;1.60;;;20.10;60.80;;;;;;2098495;28;20048;-86
2022/07/10 05:06:11;;;;;;;2.13;1.60;;;20.10;60.70;;;;;;2083415;28;20456;-86
2022/07/10 05:07:14;;;;;;;2.40;1.60;;;20.00;60.70;;;;;;2091728;28;20025;-86
2022/07/10 05:08:14;;;;;;;2.72;1.50;;;20.00;60.80;;;;;;2087227;28;20092;-85
2022/07/10 05:09:15;;;;;;;4.07;1.80;;;20.00;60.90;;;;;;2083560;28;20319;-85
2022/07/10 05:10:16;;;;;;;4.03;1.63;;;20.10;60.90;;;;;;2083290;28;20479;-85
2022/07/10 05:11:17;;;;;;;2.50;1.80;;;20.00;60.90;;;;;;2082580;28;20022;-85
2022/07/10 05:12:18;;;;;;;2.60;1.77;;;20.00;60.90;;;;;;2091790;28;20064;-86
2022/07/10 05:13:19;;;;;;;4.40;1.33;;;20.00;60.90;;;;;;2091586;28;20178;-86
2022/07/10 05:14:19;;;;;;;4.00;1.97;;;20.10;61.10;;;;;;2100069;28;20067;-85
2022/07/10 05:15:20;;;;;;;2.97;1.50;;;20.00;61.10;;;;;;2098647;28;20336;-86
2022/07/10 05:16:21;;;;;;;2.37;1.40;;;20.00;61.30;;;;;;2083289;28;20046;-86
2022/07/10 05:17:22;;;;;;;4.33;1.90;;;20.00;61.30;;;;;;2091604;28;20067;-86
2022/07/10 05:18:23;;;;;;;2.90;1.77;;;20.00;61.30;;;;;;2086810;28;20120;-85
2022/07/10 05:19:24;;;;;;;5.30;1.80;;;20.00;61.20;;;;;;2075270;28;20360;-85
2022/07/10 05:20:24;;;;;;;2.75;1.63;;;20.00;61.30;;;;;;2082013;28;20480;-85
2022/07/10 05:21:25;;;;;;;3.07;1.50;;;20.00;61.30;;;;;;2083290;28;20064;-85